Time;durP1;ratioP1;P1;durP2;ratioP2;P2;SDS_P1;SDS_P2;PMS_P1;PMS_P2;Temp;Humidity;BMP_temperature;BMP_pressure;BME280_temperature;BME280_humidity;BME280_pressure;Samples;Min_cycle;Max_cycle;Signal;HPM_P1;HPM_P2
2023/12/18 00:02:12;;;;;;;3.20;1.80;;;;;;;1.46;100.00;100996.00;5109695;28;20225;-61
2023/12/18 00:04:39;;;;;;;0.83;0.83;;;;;;;1.43;100.00;100996.84;5109381;28;20212;-61
2023/12/18 00:07:07;;;;;;;1.40;1.23;;;;;;;1.40;100.00;100996.00;5109662;28;20193;-62
2023/12/18 00:09:34;;;;;;;2.83;2.10;;;;;;;1.36;100.00;101005.25;5109167;28;20205;-62
2023/12/18 00:12:00;;;;;;;2.27;1.43;;;;;;;1.36;100.00;101010.31;5109239;28;20574;-62
2023/12/18 00:14:27;;;;;;;1.13;0.97;;;;;;;1.44;100.00;100998.53;5109262;28;20197;-62
2023/12/18 00:16:54;;;;;;;1.20;1.00;;;;;;;1.40;100.00;100988.44;5109557;28;20204;-61
2023/12/18 00:19:21;;;;;;;1.70;1.17;;;;;;;1.38;100.00;100993.50;5109156;28;20197;-61
2023/12/18 00:21:47;;;;;;;1.53;1.23;;;;;;;1.38;100.00;100983.44;5109095;28;20233;-62
2023/12/18 00:24:16;;;;;;;2.17;1.80;;;;;;;1.36;100.00;100988.47;5109480;28;20209;-62
2023/12/18 00:26:42;;;;;;;1.97;0.83;;;;;;;1.38;100.00;100985.94;5108969;28;20197;-62
2023/12/18 00:29:09;;;;;;;4.83;1.03;;;;;;;1.38;100.00;100983.44;5108969;28;20674;-61
2023/12/18 00:31:36;;;;;;;5.20;1.07;;;;;;;1.30;100.00;100985.97;5109174;28;20213;-62
2023/12/18 00:34:03;;;;;;;2.33;1.20;;;;;;;1.33;100.00;100985.13;5109048;28;20204;-62
2023/12/18 00:36:29;;;;;;;1.23;1.13;;;;;;;1.32;100.00;100978.41;5108920;28;20730;-62
2023/12/18 00:38:56;;;;;;;1.90;1.43;;;;;;;1.32;100.00;100979.25;5108924;28;20200;-62
2023/12/18 00:41:24;;;;;;;1.63;1.53;;;;;;;1.30;100.00;100970.00;5109239;28;20228;-62
2023/12/18 00:43:51;;;;;;;1.33;0.97;;;;;;;1.32;100.00;100978.41;5109239;28;20216;-62
2023/12/18 00:46:18;;;;;;;0.80;0.80;;;;;;;1.32;100.00;100971.69;5108826;28;20212;-62
2023/12/18 00:48:45;;;;;;;2.57;1.30;;;;;;;1.29;100.00;100978.44;5108820;28;20201;-62
2023/12/18 00:51:12;;;;;;;2.47;1.27;;;;;;;1.29;100.00;100975.91;5108915;28;20201;-62
2023/12/18 00:53:38;;;;;;;0.83;0.83;;;;;;;1.31;100.00;100967.50;5109157;28;20229;-62
2023/12/18 00:56:06;;;;;;;1.23;1.13;;;;;;;1.32;100.00;100969.16;5108803;28;20209;-62
2023/12/18 00:58:34;;;;;;;1.77;1.60;;;;;;;1.34;100.00;100967.50;5108911;28;20197;-62
2023/12/18 01:01:01;;;;;;;3.90;1.00;;;;;;;1.32;100.00;100966.66;5108787;28;20201;-62
2023/12/18 01:03:28;;;;;;;5.03;1.33;;;;;;;1.26;100.00;100966.69;5108548;28;20232;-62
2023/12/18 01:05:55;;;;;;;1.50;1.10;;;;;;;1.22;100.00;100957.47;5108726;28;20197;-62
2023/12/18 01:08:22;;;;;;;1.03;0.97;;;;;;;1.22;100.00;100954.09;5108904;28;20197;-62
2023/12/18 01:10:49;;;;;;;1.73;1.63;;;;;;;1.18;100.00;100954.94;5108553;28;20205;-62
2023/12/18 01:13:16;;;;;;;0.73;0.73;;;;;;;1.17;100.00;100950.78;5108548;28;20690;-62
2023/12/18 01:15:44;;;;;;;0.90;0.90;;;;;;;1.12;100.00;100944.03;5108870;28;20228;-62
2023/12/18 01:18:11;;;;;;;1.13;0.97;;;;;;;1.16;100.00;100947.38;5108627;28;20621;-62
2023/12/18 01:20:37;;;;;;;2.73;1.27;;;;;;;1.12;100.00;100936.50;5108683;28;20211;-61
2023/12/18 01:23:05;;;;;;;3.83;1.67;;;;;;;1.16;100.00;100939.00;5108449;28;20233;-62
2023/12/18 01:25:32;;;;;;;2.87;1.27;;;;;;;1.19;100.00;100926.38;5108223;28;20353;-62
2023/12/18 01:27:59;;;;;;;2.00;1.37;;;;;;;1.19;100.00;100926.38;5108426;28;20201;-62
2023/12/18 01:30:25;;;;;;;1.30;1.10;;;;;;;1.19;100.00;100926.38;5109583;28;20201;-62
2023/12/18 01:32:53;;;;;;;6.33;1.60;;;;;;;1.17;100.00;100923.06;5112802;28;20658;-62
2023/12/18 01:35:20;;;;;;;1.77;1.10;;;;;;;1.16;100.00;100906.25;5112421;28;20208;-62
2023/12/18 01:37:47;;;;;;;0.70;0.70;;;;;;;1.11;100.00;100899.56;5112150;27;20197;-62
2023/12/18 01:40:14;;;;;;;1.63;1.13;;;;;;;1.09;100.00;100896.19;5112094;28;20255;-62
2023/12/18 01:42:44;;;;;;;1.00;0.90;;;;;;;1.09;100.00;100901.25;5112147;27;20233;-62
2023/12/18 01:45:11;;;;;;;1.80;1.10;;;;;;;1.10;100.00;100900.38;5111327;28;20219;-62
2023/12/18 01:47:39;;;;;;;1.53;1.43;;;;;;;1.16;100.00;100901.22;5110651;28;20193;-62
2023/12/18 01:50:08;;;;;;;1.90;1.10;;;;;;;1.33;100.00;100899.44;5110709;28;20201;-62
2023/12/18 01:52:36;;;;;;;1.77;1.13;;;;;;;1.31;100.00;100907.03;5111407;28;20718;-62
2023/12/18 01:55:04;;;;;;;3.13;1.60;;;;;;;1.27;100.00;100899.47;5112124;28;20200;-61
2023/12/18 01:57:32;;;;;;;0.87;0.87;;;;;;;1.35;100.00;100905.31;5111994;28;20206;-62
2023/12/18 01:59:59;;;;;;;1.10;0.97;;;;;;;1.33;100.00;100904.47;5111867;28;20198;-62
2023/12/18 02:02:26;;;;;;;2.20;1.27;;;;;;;1.37;100.00;100906.16;5111685;28;20228;-62
2023/12/18 02:04:53;;;;;;;4.17;0.77;;;;;;;1.37;100.00;100898.59;5111919;28;20205;-62
2023/12/18 02:07:21;;;;;;;1.63;0.97;;;;;;;1.39;100.00;100896.88;5111611;28;20212;-62
2023/12/18 02:09:48;;;;;;;1.10;0.87;;;;;;;1.49;100.00;100895.19;5111504;28;20201;-62
2023/12/18 02:12:15;;;;;;;2.83;0.87;;;;;;;1.48;100.00;100884.22;5111832;28;20212;-62
2023/12/18 02:14:42;;;;;;;0.87;0.80;;;;;;;1.50;100.00;100876.66;5111510;28;20201;-62
2023/12/18 02:17:09;;;;;;;0.87;0.87;;;;;;;1.53;100.00;100872.44;5111830;28;20196;-62
2023/12/18 02:19:36;;;;;;;4.03;1.20;;;;;;;1.62;100.00;100876.59;5111607;28;20201;-61
2023/12/18 02:22:03;;;;;;;1.30;0.97;;;;;;;1.58;100.00;100865.69;5111259;28;20198;-62
2023/12/18 02:24:31;;;;;;;3.67;1.87;;;;;;;1.67;100.00;100879.09;5111315;28;20600;-61
2023/12/18 02:26:59;;;;;;;3.77;1.00;;;;;;;1.63;100.00;100869.84;5111320;28;20210;-62
2023/12/18 02:29:26;;;;;;;1.50;1.37;;;;;;;1.65;100.00;100865.66;5111229;28;20258;-62
2023/12/18 02:31:53;;;;;;;1.67;1.00;;;;;;;1.67;100.00;100869.00;5111095;28;20583;-62
2023/12/18 02:34:20;;;;;;;2.07;1.80;;;;;;;1.67;100.00;100874.06;5111159;28;20684;-62
2023/12/18 02:36:48;;;;;;;1.73;1.47;;;;;;;1.67;100.00;100863.97;5111330;28;20204;-62
2023/12/18 02:39:15;;;;;;;0.73;0.73;;;;;;;1.70;100.00;100863.94;5111353;28;20224;-62
2023/12/18 02:41:43;;;;;;;0.67;0.60;;;;;;;1.71;100.00;100865.59;5110772;28;20209;-62
2023/12/18 02:44:10;;;;;;;1.50;1.30;;;;;;;1.66;100.00;100869.84;5111105;28;20738;-62
2023/12/18 02:46:37;;;;;;;1.07;0.97;;;;;;;1.65;100.00;100870.69;5110991;28;20213;-62
2023/12/18 02:49:04;;;;;;;2.37;1.47;;;;;;;1.62;100.00;100865.66;5111289;28;20205;-61
2023/12/18 02:51:30;;;;;;;0.63;0.63;;;;;;;1.65;100.00;100865.66;5111230;28;20700;-62
2023/12/18 02:53:57;;;;;;;3.30;1.20;;;;;;;1.59;100.00;100867.34;5110741;28;20204;-62
2023/12/18 02:56:25;;;;;;;1.00;0.93;;;;;;;1.59;100.00;100862.31;5111161;28;20204;-62
2023/12/18 02:58:54;;;;;;;0.83;0.83;;;;;;;1.54;100.00;100860.66;5110957;28;20553;-62
2023/12/18 03:01:21;;;;;;;1.53;1.43;;;;;;;1.45;100.00;100864.09;5110853;28;20250;-62
2023/12/18 03:03:48;;;;;;;2.87;0.77;;;;;;;1.45;100.00;100874.16;5110845;28;20232;-62
2023/12/18 03:06:15;;;;;;;1.33;1.10;;;;;;;1.41;100.00;100867.47;5110537;28;20205;-62
2023/12/18 03:08:42;;;;;;;2.30;1.57;;;;;;;1.44;100.00;100864.94;5110844;28;20197;-62
2023/12/18 03:11:09;;;;;;;1.27;0.60;;;;;;;1.42;100.00;100859.06;5110338;28;20342;-62
2023/12/18 03:13:36;;;;;;;3.47;1.17;;;;;;;1.34;100.00;100860.81;5110534;28;20204;-62
2023/12/18 03:16:04;;;;;;;1.07;0.97;;;;;;;1.29;100.00;100854.97;5110577;28;20246;-62
2023/12/18 03:18:31;;;;;;;1.13;1.00;;;;;;;1.30;100.00;100859.16;5110247;28;20208;-62
2023/12/18 03:20:58;;;;;;;0.60;0.60;;;;;;;1.26;100.00;100852.47;5110096;28;20585;-62
2023/12/18 03:23:25;;;;;;;0.60;0.53;;;;;;;1.22;100.00;100853.31;5110406;28;20248;-61
2023/12/18 03:25:51;;;;;;;3.10;1.13;;;;;;;1.22;100.00;100854.16;5110479;28;20201;-62
2023/12/18 03:28:18;;;;;;;1.47;0.97;;;;;;;1.18;100.00;100859.22;5110340;28;20198;-62
2023/12/18 03:30:45;;;;;;;0.80;0.80;;;;;;;1.17;100.00;100862.59;5109903;28;20225;-62
2023/12/18 03:33:14;;;;;;;2.23;0.73;;;;;;;1.11;100.00;100863.47;5109971;27;20705;-62
2023/12/18 03:35:40;;;;;;;0.70;0.67;;;;;;;1.09;100.00;100865.16;5109682;28;20202;-62
2023/12/18 03:38:07;;;;;;;1.20;1.03;;;;;;;1.09;100.00;100871.00;5110355;28;20197;-62
2023/12/18 03:40:34;;;;;;;1.50;0.87;;;;;;;1.15;100.00;100870.16;5109593;28;20250;-63
2023/12/18 03:43:01;;;;;;;0.53;0.53;;;;;;;1.09;100.00;100875.22;5109762;28;20936;-62
2023/12/18 03:45:28;;;;;;;2.53;1.23;;;;;;;1.12;100.00;100865.97;5110027;28;20608;-62
2023/12/18 03:47:54;;;;;;;0.40;0.40;;;;;;;1.06;100.00;100860.94;5109812;28;20198;-62
2023/12/18 03:50:22;;;;;;;0.90;0.90;;;;;;;0.99;100.00;100864.34;5109716;28;20204;-62
2023/12/18 03:52:49;;;;;;;0.53;0.47;;;;;;;0.93;100.00;100869.41;5109345;28;20210;-62
2023/12/18 03:55:16;;;;;;;1.30;0.93;;;;;;;0.93;100.00;100859.31;5109485;28;20204;-62
2023/12/18 03:57:43;;;;;;;0.63;0.63;;;;;;;1.06;100.00;100855.09;5109600;28;20250;-62
2023/12/18 04:00:11;;;;;;;0.60;0.60;;;;;;;1.04;100.00;100852.56;5109586;28;20205;-62
2023/12/18 04:02:38;;;;;;;5.90;0.93;;;;;;;1.04;100.00;100850.03;5109353;28;20208;-62
2023/12/18 04:05:06;;;;;;;0.80;0.60;;;;;;;1.05;100.00;100848.38;5109358;28;20717;-62
2023/12/18 04:07:34;;;;;;;0.73;0.73;;;;;;;1.06;100.00;100845.84;5109441;28;20197;-62
2023/12/18 04:10:00;;;;;;;1.23;1.07;;;;;;;1.02;100.00;100844.19;5109471;28;20201;-62
2023/12/18 04:12:27;;;;;;;2.40;1.10;;;;;;;1.05;100.00;100839.13;5109317;28;20208;-62
2023/12/18 04:14:54;;;;;;;1.07;0.80;;;;;;;1.06;100.00;100835.75;5109601;28;20264;-62
2023/12/18 04:17:21;;;;;;;0.77;0.77;;;;;;;1.10;100.00;100831.53;5109639;28;20225;-62
2023/12/18 04:19:48;;;;;;;1.73;0.83;;;;;;;1.06;100.00;100830.72;5109224;28;20681;-62
2023/12/18 04:22:14;;;;;;;0.60;0.60;;;;;;;1.05;100.00;100839.13;5109476;28;20201;-62
2023/12/18 04:24:43;;;;;;;0.60;0.60;;;;;;;1.00;100.00;100830.75;5109001;28;20228;-62
2023/12/18 04:27:10;;;;;;;1.67;1.30;;;;;;;0.96;100.00;100823.22;5109208;28;20258;-62
2023/12/18 04:29:37;;;;;;;0.77;0.77;;;;;;;0.97;100.00;100824.91;5109091;28;20197;-62
2023/12/18 04:32:05;;;;;;;0.70;0.70;;;;;;;1.00;100.00;100824.91;5108907;28;20380;-62
2023/12/18 04:34:31;;;;;;;1.30;0.57;;;;;;;1.04;100.00;100829.88;5108836;28;20193;-62
2023/12/18 04:36:58;;;;;;;0.90;0.90;;;;;;;1.07;100.00;100827.34;5108856;28;20197;-62
2023/12/18 04:39:25;;;;;;;1.47;1.37;;;;;;;1.03;100.00;100830.75;5108830;28;20197;-62
2023/12/18 04:41:53;;;;;;;2.33;1.23;;;;;;;1.08;100.00;100834.09;5108844;28;20621;-62
2023/12/18 04:44:20;;;;;;;1.30;1.20;;;;;;;1.17;100.00;100834.88;5109241;28;20229;-62
2023/12/18 04:46:47;;;;;;;1.00;1.00;;;;;;;1.17;100.00;100837.41;5108826;28;20200;-62
2023/12/18 04:49:14;;;;;;;0.53;0.53;;;;;;;1.20;100.00;100838.22;5108846;28;20246;-62
2023/12/18 04:51:41;;;;;;;1.60;1.50;;;;;;;1.22;100.00;100851.66;5108908;28;20201;-62
2023/12/18 04:54:07;;;;;;;0.83;0.83;;;;;;;1.19;100.00;100850.81;5108773;28;20197;-62
2023/12/18 04:56:34;;;;;;;2.00;0.80;;;;;;;1.18;100.00;100844.09;5108329;28;20204;-62
2023/12/18 04:59:02;;;;;;;2.47;0.60;;;;;;;1.19;100.00;100850.81;5107583;28;20205;-62
2023/12/18 05:01:29;;;;;;;0.87;0.87;;;;;;;1.06;100.00;100848.34;5108449;28;20217;-62
2023/12/18 05:03:56;;;;;;;0.57;0.53;;;;;;;1.03;100.00;100845.84;5108635;28;20224;-62
2023/12/18 05:06:25;;;;;;;0.57;0.57;;;;;;;0.99;100.00;100836.66;5112949;28;20197;-62
2023/12/18 05:08:52;;;;;;;0.63;0.63;;;;;;;0.95;100.00;100832.47;5113131;28;20213;-62
2023/12/18 05:11:20;;;;;;;0.77;0.73;;;;;;;0.96;100.00;100824.06;5113106;28;20201;-62
2023/12/18 05:13:47;;;;;;;1.60;0.93;;;;;;;0.91;100.00;100820.75;5113286;28;20549;-62
2023/12/18 05:16:16;;;;;;;0.43;0.43;;;;;;;0.97;100.00;100818.19;5112936;28;20220;-62
2023/12/18 05:18:43;;;;;;;0.67;0.67;;;;;;;0.98;100.00;100807.25;5112676;28;20201;-62
2023/12/18 05:21:11;;;;;;;0.40;0.40;;;;;;;0.99;100.00;100814.00;5112944;28;20561;-62
2023/12/18 05:23:38;;;;;;;0.70;0.70;;;;;;;1.02;100.00;100813.97;5112431;28;20678;-62
2023/12/18 05:26:05;;;;;;;0.60;0.60;;;;;;;1.08;100.00;100824.00;5112341;28;20204;-62
2023/12/18 05:28:32;;;;;;;3.13;0.77;;;;;;;1.09;100.00;100825.66;5112318;28;20201;-62
2023/12/18 05:30:58;;;;;;;0.60;0.60;;;;;;;1.11;100.00;100834.06;5112227;28;20209;-62
2023/12/18 05:33:26;;;;;;;5.83;1.03;;;;;;;1.21;100.00;100839.03;5112754;28;20208;-62
2023/12/18 05:35:53;;;;;;;0.83;0.83;;;;;;;1.18;100.00;100846.63;5112119;28;20582;-62
2023/12/18 05:38:20;;;;;;;1.77;0.83;;;;;;;1.21;100.00;100834.00;5112776;28;20208;-62
2023/12/18 05:40:47;;;;;;;0.97;0.80;;;;;;;1.25;100.00;100838.16;5112276;28;20201;-62
2023/12/18 05:43:13;;;;;;;0.93;0.93;;;;;;;1.21;100.00;100823.94;5112111;28;20206;-62
2023/12/18 05:45:40;;;;;;;0.57;0.57;;;;;;;1.21;100.00;100823.94;5111947;28;20694;-62
2023/12/18 05:48:07;;;;;;;1.27;0.77;;;;;;;1.17;100.00;100822.28;5112293;27;20473;-62
2023/12/18 05:50:36;;;;;;;1.93;1.37;;;;;;;1.07;100.00;100812.25;5111957;28;20193;-62
2023/12/18 05:53:02;;;;;;;0.53;0.53;;;;;;;1.01;100.00;100809.75;5112362;28;20213;-62
2023/12/18 05:55:29;;;;;;;0.70;0.70;;;;;;;0.94;100.00;100815.69;5111810;28;20201;-62
2023/12/18 05:57:56;;;;;;;0.80;0.80;;;;;;;0.89;100.00;100812.34;5111923;28;20196;-62
2023/12/18 06:00:23;;;;;;;1.37;1.13;;;;;;;0.96;100.00;100814.00;5112149;28;20633;-62
2023/12/18 06:02:50;;;;;;;1.00;0.80;;;;;;;0.83;100.00;100802.31;5111733;28;20494;-62
2023/12/18 06:05:17;;;;;;;1.00;1.00;;;;;;;0.85;100.00;100805.66;5112058;28;20594;-62
2023/12/18 06:07:45;;;;;;;0.70;0.67;;;;;;;0.86;100.00;100807.31;5112000;28;20274;-62
2023/12/18 06:10:12;;;;;;;0.47;0.47;;;;;;;0.90;100.00;100804.81;5111615;27;20208;-62
2023/12/18 06:12:38;;;;;;;1.53;0.60;;;;;;;0.99;100.00;100808.09;5111839;28;20201;-62
2023/12/18 06:15:07;;;;;;;1.03;0.87;;;;;;;1.07;100.00;100811.41;5111927;28;20208;-62
2023/12/18 06:17:33;;;;;;;1.30;1.03;;;;;;;1.21;100.00;100808.81;5110652;28;20662;-62
2023/12/18 06:20:00;;;;;;;1.77;0.90;;;;;;;1.33;100.00;100813.78;5111771;28;20224;-62
2023/12/18 06:22:27;;;;;;;0.30;0.30;;;;;;;1.41;100.00;100817.09;5111553;28;20198;-62
2023/12/18 06:24:55;;;;;;;1.93;1.23;;;;;;;1.48;100.00;100822.91;5111400;28;20236;-62
2023/12/18 06:27:22;;;;;;;1.03;1.00;;;;;;;1.58;100.00;100820.31;5111559;28;20201;-62
2023/12/18 06:29:49;;;;;;;0.60;0.60;;;;;;;1.69;100.00;100821.94;5111459;28;20204;-62
2023/12/18 06:32:15;;;;;;;1.97;1.43;;;;;;;1.78;100.00;100816.81;5111110;28;20224;-62
2023/12/18 06:34:44;;;;;;;2.17;1.50;;;;;;;1.95;100.00;100820.03;5111082;28;20197;-62
2023/12/18 06:37:11;;;;;;;0.80;0.80;;;;;;;2.13;100.00;100813.13;5111410;28;20208;-62
2023/12/18 06:39:38;;;;;;;1.20;1.10;;;;;;;2.16;100.00;100808.06;5111059;28;20713;-62
2023/12/18 06:42:06;;;;;;;2.73;1.00;;;;;;;2.20;100.00;100809.69;5111291;28;20209;-62
2023/12/18 06:44:33;;;;;;;2.13;1.00;;;;;;;2.25;100.00;100803.75;5110897;28;20607;-62
2023/12/18 06:47:00;;;;;;;1.20;1.10;;;;;;;2.36;100.00;100801.13;5111000;28;20746;-62
2023/12/18 06:49:26;;;;;;;0.90;0.90;;;;;;;2.45;100.00;100806.06;5111298;28;20197;-62
2023/12/18 06:51:53;;;;;;;1.20;1.10;;;;;;;2.54;100.00;100804.28;5110972;28;20211;-62
2023/12/18 06:54:20;;;;;;;2.00;1.40;;;;;;;2.67;100.00;100800.75;5110980;28;20201;-62
2023/12/18 06:56:47;;;;;;;1.63;1.20;;;;;;;2.84;100.00;100803.91;5110336;28;20208;-62
2023/12/18 06:59:15;;;;;;;1.57;1.43;;;;;;;3.05;100.00;100807.00;5109636;28;20201;-62
2023/12/18 07:01:42;;;;;;;3.10;1.17;;;;;;;3.20;100.00;100804.28;5110287;27;20197;-62
2023/12/18 07:04:09;;;;;;;0.83;0.83;;;;;;;3.34;100.00;100804.88;5110602;28;20236;-61
2023/12/18 07:06:35;;;;;;;1.37;1.10;;;;;;;3.48;100.00;100806.38;5110480;28;20248;-62
2023/12/18 07:09:03;;;;;;;1.30;1.00;;;;;;;3.65;100.00;100813.69;5110599;28;20197;-62
2023/12/18 07:11:30;;;;;;;2.03;1.63;;;;;;;3.84;100.00;100808.31;5110491;28;20205;-61
2023/12/18 07:13:57;;;;;;;0.87;0.87;;;;;;;4.02;100.00;100803.81;5110414;28;20208;-62
2023/12/18 07:16:25;;;;;;;2.93;1.60;;;;;;;4.11;100.00;100807.88;5110150;28;20225;-61
2023/12/18 07:18:52;;;;;;;1.37;1.27;;;;;;;4.22;100.00;100806.81;5110651;28;20193;-61
2023/12/18 07:21:19;;;;;;;0.80;0.73;;;;;;;4.39;100.00;100810.69;5110333;28;20197;-62
2023/12/18 07:23:46;;;;;;;1.07;0.90;;;;;;;4.50;100.00;100808.81;5110364;28;20197;-62
2023/12/18 07:26:13;;;;;;;2.13;1.53;;;;;;;4.62;100.00;100818.69;5110180;28;20193;-62
2023/12/18 07:28:40;;;;;;;1.40;1.30;;;;;;;4.78;100.00;100816.69;5110293;28;20201;-62
2023/12/18 07:31:08;;;;;;;2.00;1.43;;;;;;;4.82;98.79;100812.38;5110154;28;20201;-61
2023/12/18 07:33:36;;;;;;;1.13;1.03;;;;;;;4.73;98.79;100814.25;5110105;27;20284;-62
2023/12/18 07:36:03;;;;;;;2.33;1.53;;;;;;;4.76;98.91;100819.25;5109808;27;20197;-61
2023/12/18 07:38:30;;;;;;;3.40;1.40;;;;;;;4.88;98.57;100817.31;5109830;28;20213;-62
2023/12/18 07:40:57;;;;;;;4.37;1.83;;;;;;;4.90;99.48;100818.13;5109861;28;20220;-61
2023/12/18 07:43:24;;;;;;;3.17;1.40;;;;;;;4.80;98.53;100814.13;5110234;28;20197;-62
2023/12/18 07:45:51;;;;;;;1.13;0.93;;;;;;;4.83;99.20;100808.97;5109698;28;20721;-62
2023/12/18 07:48:21;;;;;;;2.03;1.80;;;;;;;4.88;99.06;100813.09;5109918;28;20201;-62
2023/12/18 07:50:49;;;;;;;2.87;1.73;;;;;;;5.10;99.26;100810.94;5109915;28;20280;-62
2023/12/18 07:53:16;;;;;;;1.40;1.20;;;;;;;5.05;97.94;100804.31;5110156;28;20684;-62
2023/12/18 07:55:43;;;;;;;2.00;1.57;;;;;;;5.12;99.77;100799.06;5109639;28;20197;-62
2023/12/18 07:58:11;;;;;;;2.33;2.00;;;;;;;5.26;98.49;100808.06;5109961;28;20193;-62
2023/12/18 08:00:38;;;;;;;1.70;1.50;;;;;;;5.34;98.07;100811.25;5109451;28;20201;-62
2023/12/18 08:03:05;;;;;;;1.53;1.40;;;;;;;5.44;96.62;100807.66;5109260;28;20700;-62
2023/12/18 08:05:32;;;;;;;3.63;2.20;;;;;;;5.62;96.61;100812.28;5109102;28;20598;-62
2023/12/18 08:08:00;;;;;;;2.90;2.30;;;;;;;5.87;96.63;100814.19;5109608;28;20201;-62
2023/12/18 08:10:27;;;;;;;7.43;2.40;;;;;;;5.99;94.30;100808.88;5109298;28;20208;-62
2023/12/18 08:12:54;;;;;;;1.83;1.37;;;;;;;6.03;93.15;100802.81;5109550;28;20198;-62
2023/12/18 08:15:21;;;;;;;1.80;1.37;;;;;;;6.22;93.09;100818.41;5109334;28;20208;-62
2023/12/18 08:17:47;;;;;;;1.83;1.33;;;;;;;6.50;91.51;100813.41;5109336;28;20230;-62
2023/12/18 08:20:15;;;;;;;2.87;1.50;;;;;;;6.69;89.31;100812.88;5109126;28;20201;-62
2023/12/18 08:22:42;;;;;;;2.60;1.33;;;;;;;6.77;89.04;100805.88;5109061;28;20193;-62
2023/12/18 08:25:10;;;;;;;1.20;1.10;;;;;;;6.96;88.94;100801.94;5108983;28;20633;-62
2023/12/18 08:27:37;;;;;;;1.67;1.43;;;;;;;7.08;88.32;100805.81;5109098;28;20670;-62
2023/12/18 08:30:05;;;;;;;1.13;1.00;;;;;;;7.14;86.28;100810.72;5109076;28;20197;-62
2023/12/18 08:32:32;;;;;;;2.60;1.77;;;;;;;7.32;87.43;100804.22;5108791;28;20751;-62
2023/12/18 08:35:00;;;;;;;2.00;1.50;;;;;;;7.53;84.09;100802.72;5109213;28;20204;-62
2023/12/18 08:37:27;;;;;;;0.97;0.87;;;;;;;7.76;83.32;100809.59;5109107;28;20202;-62
2023/12/18 08:39:54;;;;;;;2.60;1.53;;;;;;;7.96;84.94;100805.56;5108797;28;20229;-62
2023/12/18 08:42:23;;;;;;;1.97;1.47;;;;;;;8.13;83.61;100818.56;5109174;28;20223;-62
2023/12/18 08:48:12;;;;;;;1.63;1.30;;;;;;;8.31;81.61;100800.06;5108974;28;20192;-61
2023/12/18 08:50:38;;;;;;;1.00;0.90;;;;;;;8.38;80.55;100798.16;5108987;28;20197;-62
2023/12/18 08:53:05;;;;;;;2.20;1.50;;;;;;;8.53;80.46;100801.91;5108738;28;20201;-62
2023/12/18 08:55:37;;;;;;;2.37;1.40;;;;;;;8.54;80.22;100803.56;5108527;28;20205;-62
2023/12/18 08:58:05;;;;;;;2.63;1.60;;;;;;;8.77;80.85;100795.91;5108758;28;20205;-63
2023/12/18 09:00:31;;;;;;;2.80;1.77;;;;;;;8.78;78.12;100801.81;5108595;28;20212;-62
2023/12/18 09:02:59;;;;;;;4.10;1.70;;;;;;;8.60;78.75;100793.13;5108772;28;20710;-63
2023/12/18 09:05:25;;;;;;;2.07;1.53;;;;;;;8.40;78.81;100791.31;5108693;28;20229;-61
2023/12/18 09:07:52;;;;;;;4.00;1.50;;;;;;;8.39;78.44;100780.28;5108571;28;20204;-61
2023/12/18 09:10:22;;;;;;;16.80;2.30;;;;;;;8.08;79.95;100769.47;5108553;28;20208;-61
2023/12/18 09:12:48;;;;;;;1.87;1.20;;;;;;;8.16;81.81;100772.59;5108651;28;20205;-61
2023/12/18 09:15:17;;;;;;;5.00;1.77;;;;;;;8.30;83.63;100775.50;5108822;28;20205;-61
2023/12/18 09:17:44;;;;;;;3.43;1.87;;;;;;;8.43;81.15;100769.97;5108511;28;20236;-61
2023/12/18 09:20:11;;;;;;;1.60;1.23;;;;;;;8.47;80.98;100766.44;5108575;28;20367;-61
2023/12/18 09:22:38;;;;;;;6.87;1.60;;;;;;;8.49;80.06;100759.56;5108533;28;20204;-60
2023/12/18 09:25:06;;;;;;;1.43;1.20;;;;;;;8.91;81.35;100762.22;5108376;28;20416;-61
2023/12/18 09:27:32;;;;;;;2.30;1.40;;;;;;;8.82;78.83;100758.31;5108374;28;20202;-61
2023/12/18 09:29:59;;;;;;;3.13;1.73;;;;;;;9.12;79.52;100755.44;5108326;28;20670;-61
2023/12/18 09:32:27;;;;;;;2.73;1.77;;;;;;;9.27;79.24;100754.81;5108340;28;20713;-61
2023/12/18 09:34:54;;;;;;;3.73;1.90;;;;;;;9.40;80.43;100733.94;5108334;28;20193;-61
2023/12/18 09:37:21;;;;;;;3.30;1.90;;;;;;;9.50;79.70;100750.53;5108530;28;20197;-61
2023/12/18 09:39:48;;;;;;;2.73;1.30;;;;;;;9.42;79.05;100743.16;5108523;28;20203;-61
2023/12/18 09:42:15;;;;;;;1.93;1.50;;;;;;;9.64;80.08;100738.00;5108815;28;20240;-61
2023/12/18 09:44:42;;;;;;;2.67;1.57;;;;;;;9.63;80.02;100733.81;5108434;28;20232;-61
2023/12/18 09:47:08;;;;;;;5.00;1.57;;;;;;;9.88;78.53;100730.22;5108199;28;20204;-61
2023/12/18 09:49:37;;;;;;;3.00;1.97;;;;;;;9.91;78.24;100722.41;5108157;28;20674;-61
2023/12/18 09:55:26;;;;;;;6.20;2.20;;;;;;;9.61;81.54;100710.06;5111990;28;20196;-61
2023/12/18 09:57:57;;;;;;;2.77;1.80;;;;;;;9.95;81.09;100722.22;5112121;28;20662;-61
2023/12/18 10:00:25;;;;;;;3.70;1.87;;;;;;;10.10;82.30;100720.72;5111638;28;20649;-60
2023/12/18 10:02:53;;;;;;;2.47;1.83;;;;;;;10.13;79.60;100725.69;5110677;28;20254;-62
2023/12/18 10:05:21;;;;;;;2.00;1.53;;;;;;;10.19;81.14;100720.31;5111588;27;20236;-61
2023/12/18 10:07:48;;;;;;;3.77;2.00;;;;;;;10.60;78.51;100715.06;5111862;28;20197;-62
2023/12/18 10:10:16;;;;;;;3.50;1.60;;;;;;;10.77;79.73;100718.59;5111667;28;20717;-62
2023/12/18 10:12:42;;;;;;;1.90;1.40;;;;;;;10.84;78.34;100704.59;5111957;28;20232;-62
2023/12/18 10:15:11;;;;;;;2.37;1.70;;;;;;;10.95;75.82;100701.53;5111730;28;20198;-61
2023/12/18 10:17:39;;;;;;;3.50;2.23;;;;;;;10.90;77.77;100694.06;5111528;28;20221;-62
2023/12/18 10:20:07;;;;;;;3.17;1.60;;;;;;;10.83;77.98;100700.38;5111582;28;20515;-61
2023/12/18 10:22:35;;;;;;;2.73;1.73;;;;;;;11.33;77.75;100691.97;5111613;28;20329;-62
2023/12/18 10:25:03;;;;;;;2.93;1.73;;;;;;;11.28;77.35;100684.50;5111639;28;20233;-61
2023/12/18 10:27:31;;;;;;;1.90;1.20;;;;;;;11.54;72.05;100688.34;5111526;28;20304;-62
2023/12/18 10:29:58;;;;;;;2.10;1.57;;;;;;;11.50;72.60;100681.72;5111242;28;20201;-62
2023/12/18 10:32:27;;;;;;;1.93;1.67;;;;;;;11.80;75.47;100678.50;5111271;28;20246;-62
2023/12/18 10:34:54;;;;;;;2.23;1.67;;;;;;;11.56;67.01;100678.84;5111243;28;20206;-62
2023/12/18 10:37:22;;;;;;;3.50;2.00;;;;;;;11.61;69.23;100675.25;5111367;28;20254;-62
2023/12/18 10:39:52;;;;;;;3.00;1.87;;;;;;;11.13;69.64;100669.91;5111163;27;20221;-61
2023/12/18 10:42:25;;;;;;;2.80;1.67;;;;;;;11.28;69.88;100660.66;5111347;28;20235;-62
2023/12/18 10:44:54;;;;;;;1.97;1.50;;;;;;;11.31;67.88;100660.50;5110993;28;20197;-62
2023/12/18 10:47:22;;;;;;;3.83;1.33;;;;;;;11.25;69.01;100663.38;5111208;28;20589;-62
2023/12/18 10:49:52;;;;;;;1.77;1.30;;;;;;;11.49;69.58;100653.59;5110896;28;20726;-62
2023/12/18 10:52:21;;;;;;;3.17;2.10;;;;;;;11.61;69.91;100647.06;5111455;28;20197;-61
2023/12/18 10:54:51;;;;;;;3.37;1.70;;;;;;;11.31;66.09;100663.06;5110535;28;20197;-62
2023/12/18 10:57:21;;;;;;;2.97;1.90;;;;;;;11.33;70.31;100658.69;5110815;28;20430;-61
2023/12/18 10:59:50;;;;;;;3.33;1.50;;;;;;;11.24;72.04;100652.31;5110592;28;20206;-62
2023/12/18 11:02:17;;;;;;;1.90;1.50;;;;;;;11.14;73.43;100645.16;5110247;28;20222;-62
2023/12/18 11:04:45;;;;;;;4.03;1.77;;;;;;;11.34;68.90;100650.09;5110579;28;20228;-61
2023/12/18 11:07:13;;;;;;;2.03;1.60;;;;;;;11.66;71.29;100647.63;5110670;28;20745;-62
2023/12/18 11:09:40;;;;;;;1.53;1.33;;;;;;;11.67;69.85;100641.63;5110670;28;20197;-62
2023/12/18 11:12:09;;;;;;;2.20;1.57;;;;;;;11.69;68.04;100639.78;5110718;28;20198;-62
2023/12/18 11:14:47;;;;;;;2.93;1.70;;;;;;;11.25;69.32;100637.75;5110408;28;20203;-62
2023/12/18 11:17:24;;;;;;;4.40;1.60;;;;;;;10.94;73.20;100630.75;5110696;28;20242;-62
2023/12/18 11:19:58;;;;;;;4.47;2.53;;;;;;;10.79;75.00;100627.22;5110338;28;20200;-62
2023/12/18 11:22:36;;;;;;;3.07;1.83;;;;;;;10.42;76.92;100621.31;5110678;28;20196;-62
2023/12/18 11:25:04;;;;;;;3.27;2.00;;;;;;;10.16;78.02;100627.63;5110116;28;20261;-62
2023/12/18 11:27:32;;;;;;;4.00;1.80;;;;;;;10.10;79.78;100628.72;5110215;27;20233;-62
2023/12/18 11:29:59;;;;;;;2.60;1.67;;;;;;;10.04;79.96;100623.88;5110078;28;20681;-62
2023/12/18 11:32:42;;;;;;;2.23;1.60;;;;;;;10.04;80.99;100608.56;5110292;28;20197;-62
2023/12/18 11:35:10;;;;;;;3.00;1.70;;;;;;;10.09;81.47;100616.81;5109907;27;20208;-61